sensor_id;sensor_type;location;lat;lon;timestamp;pressure;altitude;pressure_sealevel;temperature;humidity
65756;BME280;52489;47.502;18.940;2023-02-20T00:00:27;98717.75;;;2.24;71.51
65756;BME280;52489;47.502;18.940;2023-02-20T00:01:31;98721.81;;;2.32;70.66
65756;BME280;52489;47.502;18.940;2023-02-20T00:02:34;98727.09;;;2.37;70.66
65756;BME280;52489;47.502;18.940;2023-02-20T00:03:37;98737.44;;;2.37;70.06
65756;BME280;52489;47.502;18.940;2023-02-20T00:04:40;98734.75;;;2.32;70.06
65756;BME280;52489;47.502;18.940;2023-02-20T00:05:43;98734.50;;;2.21;70.14
65756;BME280;52489;47.502;18.940;2023-02-20T00:06:46;98733.06;;;2.25;70.27
65756;BME280;52489;47.502;18.940;2023-02-20T00:07:50;98728.66;;;2.38;69.80
65756;BME280;52489;47.502;18.940;2023-02-20T00:08:52;98739.47;;;2.35;70.05
65756;BME280;52489;47.502;18.940;2023-02-20T00:09:55;98741.13;;;2.29;70.29
65756;BME280;52489;47.502;18.940;2023-02-20T00:10:58;98753.50;;;2.27;70.35
65756;BME280;52489;47.502;18.940;2023-02-20T00:12:01;98764.06;;;2.25;70.81
65756;BME280;52489;47.502;18.940;2023-02-20T00:13:04;98757.31;;;2.24;70.81
65756;BME280;52489;47.502;18.940;2023-02-20T00:14:07;98757.75;;;2.21;70.67
65756;BME280;52489;47.502;18.940;2023-02-20T00:15:13;98762.03;;;2.27;71.09
65756;BME280;52489;47.502;18.940;2023-02-20T00:16:17;98768.00;;;2.28;70.83
65756;BME280;52489;47.502;18.940;2023-02-20T00:17:20;98766.22;;;2.28;70.37
65756;BME280;52489;47.502;18.940;2023-02-20T00:18:23;98757.31;;;2.24;70.39
65756;BME280;52489;47.502;18.940;2023-02-20T00:19:26;98767.31;;;2.21;70.55
65756;BME280;52489;47.502;18.940;2023-02-20T00:20:29;98764.72;;;2.21;70.96
65756;BME280;52489;47.502;18.940;2023-02-20T00:21:34;98771.50;;;2.22;71.38
65756;BME280;52489;47.502;18.940;2023-02-20T00:22:36;98768.44;;;2.13;71.67
65756;BME280;52489;47.502;18.940;2023-02-20T00:23:40;98771.81;;;2.25;71.23
65756;BME280;52489;47.502;18.940;2023-02-20T00:24:43;98761.66;;;2.12;72.12
65756;BME280;52489;47.502;18.940;2023-02-20T00:25:46;98773.78;;;2.00;72.55
65756;BME280;52489;47.502;18.940;2023-02-20T00:26:51;98771.47;;;2.10;72.42
65756;BME280;52489;47.502;18.940;2023-02-20T00:27:54;98773.91;;;2.05;72.98
65756;BME280;52489;47.502;18.940;2023-02-20T00:28:57;98776.72;;;2.03;73.01
65756;BME280;52489;47.502;18.940;2023-02-20T00:30:00;98777.38;;;1.99;72.97
65756;BME280;52489;47.502;18.940;2023-02-20T00:31:11;98775.94;;;2.03;72.75
65756;BME280;52489;47.502;18.940;2023-02-20T00:32:15;98777.47;;;1.92;73.49
65756;BME280;52489;47.502;18.940;2023-02-20T00:33:18;98779.63;;;1.95;73.05
65756;BME280;52489;47.502;18.940;2023-02-20T00:34:23;98784.44;;;1.92;73.49
65756;BME280;52489;47.502;18.940;2023-02-20T00:35:28;98793.19;;;1.91;73.76
65756;BME280;52489;47.502;18.940;2023-02-20T00:36:31;98787.47;;;2.00;73.49
65756;BME280;52489;47.502;18.940;2023-02-20T00:37:34;98796.25;;;1.99;73.38
65756;BME280;52489;47.502;18.940;2023-02-20T00:38:37;98792.97;;;1.92;73.65
65756;BME280;52489;47.502;18.940;2023-02-20T00:39:40;98796.03;;;2.01;73.49
65756;BME280;52489;47.502;18.940;2023-02-20T00:40:43;98793.88;;;1.98;73.54
65756;BME280;52489;47.502;18.940;2023-02-20T00:41:46;98795.63;;;1.86;73.72
65756;BME280;52489;47.502;18.940;2023-02-20T00:42:49;98801.72;;;1.91;73.57
65756;BME280;52489;47.502;18.940;2023-02-20T00:43:52;98813.88;;;1.91;73.51
65756;BME280;52489;47.502;18.940;2023-02-20T00:44:54;98810.63;;;1.95;73.65
65756;BME280;52489;47.502;18.940;2023-02-20T00:45:57;98813.22;;;1.95;73.90
65756;BME280;52489;47.502;18.940;2023-02-20T00:47:01;98818.84;;;2.04;73.51
65756;BME280;52489;47.502;18.940;2023-02-20T00:48:04;98816.69;;;2.01;73.72
65756;BME280;52489;47.502;18.940;2023-02-20T00:49:07;98820.28;;;2.00;73.65
65756;BME280;52489;47.502;18.940;2023-02-20T00:50:12;98824.34;;;1.96;73.31
65756;BME280;52489;47.502;18.940;2023-02-20T00:51:16;98826.53;;;1.92;73.73
65756;BME280;52489;47.502;18.940;2023-02-20T00:52:19;98832.53;;;1.93;73.87
65756;BME280;52489;47.502;18.940;2023-02-20T00:53:22;98839.59;;;1.97;73.95
65756;BME280;52489;47.502;18.940;2023-02-20T00:54:25;98831.72;;;1.92;73.98
65756;BME280;52489;47.502;18.940;2023-02-20T00:55:28;98833.22;;;1.70;74.75
65756;BME280;52489;47.502;18.940;2023-02-20T00:56:31;98834.00;;;1.70;74.90
65756;BME280;52489;47.502;18.940;2023-02-20T00:57:34;98839.72;;;1.72;74.82
65756;BME280;52489;47.502;18.940;2023-02-20T00:58:40;98834.28;;;1.80;74.54
65756;BME280;52489;47.502;18.940;2023-02-20T00:59:43;98846.97;;;1.82;74.30
65756;BME280;52489;47.502;18.940;2023-02-20T01:00:47;98845.16;;;1.82;74.32
65756;BME280;52489;47.502;18.940;2023-02-20T01:01:51;98842.87;;;1.74;74.88
65756;BME280;52489;47.502;18.940;2023-02-20T01:02:54;98847.84;;;1.76;75.47
65756;BME280;52489;47.502;18.940;2023-02-20T01:03:58;98844.38;;;1.82;74.94
65756;BME280;52489;47.502;18.940;2023-02-20T01:05:01;98846.56;;;1.97;73.74
65756;BME280;52489;47.502;18.940;2023-02-20T01:06:04;98840.13;;;1.88;73.92
65756;BME280;52489;47.502;18.940;2023-02-20T01:07:07;98844.47;;;1.75;74.78
65756;BME280;52489;47.502;18.940;2023-02-20T01:08:10;98841.75;;;1.70;74.54
65756;BME280;52489;47.502;18.940;2023-02-20T01:09:14;98846.91;;;1.70;75.04
65756;BME280;52489;47.502;18.940;2023-02-20T01:10:17;98848.78;;;1.63;75.12
65756;BME280;52489;47.502;18.940;2023-02-20T01:11:20;98840.28;;;1.74;75.08
65756;BME280;52489;47.502;18.940;2023-02-20T01:12:23;98839.50;;;1.74;75.12
65756;BME280;52489;47.502;18.940;2023-02-20T01:13:26;98837.59;;;1.69;74.59
65756;BME280;52489;47.502;18.940;2023-02-20T01:14:29;98844.66;;;1.74;74.73
65756;BME280;52489;47.502;18.940;2023-02-20T01:15:32;98847.19;;;1.62;75.28
65756;BME280;52489;47.502;18.940;2023-02-20T01:16:35;98841.66;;;1.77;74.96
65756;BME280;52489;47.502;18.940;2023-02-20T01:17:38;98841.16;;;1.68;74.94
65756;BME280;52489;47.502;18.940;2023-02-20T01:18:43;98850.19;;;1.59;75.35
65756;BME280;52489;47.502;18.940;2023-02-20T01:19:46;98847.91;;;1.51;75.82
65756;BME280;52489;47.502;18.940;2023-02-20T01:20:50;98856.59;;;1.56;75.37
65756;BME280;52489;47.502;18.940;2023-02-20T01:21:53;98860.53;;;1.59;75.81
65756;BME280;52489;47.502;18.940;2023-02-20T01:22:56;98863.47;;;1.63;74.94
65756;BME280;52489;47.502;18.940;2023-02-20T01:23:59;98864.56;;;1.55;75.29
65756;BME280;52489;47.502;18.940;2023-02-20T01:25:03;98863.53;;;1.56;75.18
65756;BME280;52489;47.502;18.940;2023-02-20T01:26:06;98858.47;;;1.49;75.42
65756;BME280;52489;47.502;18.940;2023-02-20T01:27:09;98867.34;;;1.53;75.41
65756;BME280;52489;47.502;18.940;2023-02-20T01:28:13;98858.97;;;1.58;75.53
65756;BME280;52489;47.502;18.940;2023-02-20T01:29:16;98859.22;;;1.68;75.25
65756;BME280;52489;47.502;18.940;2023-02-20T01:30:19;98854.94;;;1.62;75.57
65756;BME280;52489;47.502;18.940;2023-02-20T01:31:22;98851.31;;;1.51;76.34
65756;BME280;52489;47.502;18.940;2023-02-20T01:32:26;98856.97;;;1.60;76.13
65756;BME280;52489;47.502;18.940;2023-02-20T01:33:28;98853.44;;;1.54;76.01
65756;BME280;52489;47.502;18.940;2023-02-20T01:34:32;98858.37;;;1.56;76.01
65756;BME280;52489;47.502;18.940;2023-02-20T01:35:35;98859.47;;;1.48;76.02
65756;BME280;52489;47.502;18.940;2023-02-20T01:36:38;98856.00;;;1.36;76.57
65756;BME280;52489;47.502;18.940;2023-02-20T01:37:41;98856.88;;;1.30;76.88
65756;BME280;52489;47.502;18.940;2023-02-20T01:38:44;98854.09;;;1.31;76.51
65756;BME280;52489;47.502;18.940;2023-02-20T01:39:47;98863.81;;;1.29;76.93
65756;BME280;52489;47.502;18.940;2023-02-20T01:40:50;98855.88;;;1.31;76.93
65756;BME280;52489;47.502;18.940;2023-02-20T01:41:56;98853.72;;;1.28;76.92
65756;BME280;52489;47.502;18.940;2023-02-20T01:43:02;98856.00;;;1.36;76.93
65756;BME280;52489;47.502;18.940;2023-02-20T01:44:17;98853.59;;;1.41;76.62
65756;BME280;52489;47.502;18.940;2023-02-20T01:47:29;98862.78;;;1.12;77.78
65756;BME280;52489;47.502;18.940;2023-02-20T01:48:33;98862.47;;;1.27;77.03
65756;BME280;52489;47.502;18.940;2023-02-20T01:49:43;98856.88;;;1.30;77.16
65756;BME280;52489;47.502;18.940;2023-02-20T01:50:48;98865.63;;;1.29;77.34
65756;BME280;52489;47.502;18.940;2023-02-20T01:52:00;98858.22;;;1.14;77.69
65756;BME280;52489;47.502;18.940;2023-02-20T01:53:10;98858.72;;;1.04;78.24
65756;BME280;52489;47.502;18.940;2023-02-20T01:54:19;98853.31;;;1.06;78.14
65756;BME280;52489;47.502;18.940;2023-02-20T01:55:37;98855.91;;;1.06;78.52
65756;BME280;52489;47.502;18.940;2023-02-20T01:56:42;98857.78;;;0.99;78.90
65756;BME280;52489;47.502;18.940;2023-02-20T01:58:00;98856.66;;;1.13;78.38
65756;BME280;52489;47.502;18.940;2023-02-20T01:59:06;98858.44;;;1.12;78.17
65756;BME280;52489;47.502;18.940;2023-02-20T02:00:16;98856.13;;;1.04;78.57
65756;BME280;52489;47.502;18.940;2023-02-20T02:01:21;98855.97;;;0.99;78.87
65756;BME280;52489;47.502;18.940;2023-02-20T02:02:27;98864.94;;;0.97;78.74
65756;BME280;52489;47.502;18.940;2023-02-20T02:03:38;98859.19;;;0.95;78.98
65756;BME280;52489;47.502;18.940;2023-02-20T02:04:46;98862.88;;;1.05;78.50
65756;BME280;52489;47.502;18.940;2023-02-20T02:05:53;98865.87;;;1.02;78.69
65756;BME280;52489;47.502;18.940;2023-02-20T02:07:00;98869.09;;;0.98;78.90
65756;BME280;52489;47.502;18.940;2023-02-20T02:08:06;98856.50;;;1.08;78.33
65756;BME280;52489;47.502;18.940;2023-02-20T02:09:20;98861.03;;;1.12;78.29
65756;BME280;52489;47.502;18.940;2023-02-20T02:11:16;98862.28;;;1.03;78.41
65756;BME280;52489;47.502;18.940;2023-02-20T02:11:52;98868.09;;;0.99;78.84
65756;BME280;52489;47.502;18.940;2023-02-20T02:12:55;98868.81;;;1.06;78.84
65756;BME280;52489;47.502;18.940;2023-02-20T02:13:58;98876.28;;;1.14;78.35
65756;BME280;52489;47.502;18.940;2023-02-20T02:15:01;98880.13;;;1.05;78.54
65756;BME280;52489;47.502;18.940;2023-02-20T02:25:41;98881.69;;;0.87;79.04
65756;BME280;52489;47.502;18.940;2023-02-20T02:31:03;98887.87;;;0.80;79.91
65756;BME280;52489;47.502;18.940;2023-02-20T02:36:52;98881.41;;;0.71;79.94
65756;BME280;52489;47.502;18.940;2023-02-20T02:44:30;98897.97;;;0.56;80.67
65756;BME280;52489;47.502;18.940;2023-02-20T02:45:52;98897.97;;;0.56;80.69
65756;BME280;52489;47.502;18.940;2023-02-20T02:48:39;98904.66;;;0.64;80.60
65756;BME280;52489;47.502;18.940;2023-02-20T02:49:57;98899.31;;;0.65;80.56
65756;BME280;52489;47.502;18.940;2023-02-20T02:51:09;98894.88;;;0.41;81.47
65756;BME280;52489;47.502;18.940;2023-02-20T02:52:14;98902.84;;;0.39;81.69
65756;BME280;52489;47.502;18.940;2023-02-20T02:53:38;98899.84;;;0.42;81.57
65756;BME280;52489;47.502;18.940;2023-02-20T02:54:41;98905.84;;;0.61;81.14
65756;BME280;52489;47.502;18.940;2023-02-20T02:55:44;98906.94;;;0.47;81.30
65756;BME280;52489;47.502;18.940;2023-02-20T02:56:47;98901.97;;;0.52;81.26
65756;BME280;52489;47.502;18.940;2023-02-20T02:57:51;98911.34;;;0.40;81.45
65756;BME280;52489;47.502;18.940;2023-02-20T02:58:54;98907.62;;;0.36;81.72
65756;BME280;52489;47.502;18.940;2023-02-20T03:00:01;98914.47;;;0.49;81.16
65756;BME280;52489;47.502;18.940;2023-02-20T03:01:07;98913.38;;;0.31;81.82
65756;BME280;52489;47.502;18.940;2023-02-20T03:02:13;98916.91;;;0.37;81.78
65756;BME280;52489;47.502;18.940;2023-02-20T03:03:27;98921.34;;;0.30;82.09
65756;BME280;52489;47.502;18.940;2023-02-20T03:04:33;98922.12;;;0.30;82.29
65756;BME280;52489;47.502;18.940;2023-02-20T03:05:50;98925.09;;;0.27;82.40
65756;BME280;52489;47.502;18.940;2023-02-20T03:07:03;98929.66;;;0.25;82.71
65756;BME280;52489;47.502;18.940;2023-02-20T03:09:29;98928.69;;;0.19;82.88
65756;BME280;52489;47.502;18.940;2023-02-20T03:10:34;98931.66;;;0.23;83.14
65756;BME280;52489;47.502;18.940;2023-02-20T03:11:41;98923.72;;;0.25;83.10
65756;BME280;52489;47.502;18.940;2023-02-20T03:12:48;98932.25;;;0.25;82.98
65756;BME280;52489;47.502;18.940;2023-02-20T03:14:11;98933.44;;;0.22;83.43
65756;BME280;52489;47.502;18.940;2023-02-20T03:15:38;98935.09;;;0.10;84.49
65756;BME280;52489;47.502;18.940;2023-02-20T03:16:55;98929.34;;;0.08;85.08
65756;BME280;52489;47.502;18.940;2023-02-20T03:18:28;98938.09;;;0.01;85.70
65756;BME280;52489;47.502;18.940;2023-02-20T03:19:41;98925.63;;;-0.09;87.26
65756;BME280;52489;47.502;18.940;2023-02-20T03:20:48;98916.03;;;0.11;86.58
65756;BME280;52489;47.502;18.940;2023-02-20T03:21:55;98925.97;;;0.08;86.13
65756;BME280;52489;47.502;18.940;2023-02-20T03:22:59;98923.00;;;0.11;86.06
65756;BME280;52489;47.502;18.940;2023-02-20T03:24:06;98917.88;;;0.04;86.50
65756;BME280;52489;47.502;18.940;2023-02-20T03:25:16;98920.03;;;0.07;86.42
65756;BME280;52489;47.502;18.940;2023-02-20T03:26:26;98913.47;;;0.18;86.02
65756;BME280;52489;47.502;18.940;2023-02-20T03:29:33;98916.31;;;0.35;85.12
65756;BME280;52489;47.502;18.940;2023-02-20T03:31:01;98910.53;;;0.08;86.20
65756;BME280;52489;47.502;18.940;2023-02-20T03:32:10;98902.59;;;0.03;86.86
65756;BME280;52489;47.502;18.940;2023-02-20T03:33:49;98907.91;;;0.21;85.99
65756;BME280;52489;47.502;18.940;2023-02-20T03:35:14;98912.22;;;0.20;85.86
65756;BME280;52489;47.502;18.940;2023-02-20T03:36:46;98912.22;;;0.20;85.96
65756;BME280;52489;47.502;18.940;2023-02-20T03:38:09;98920.19;;;0.19;86.14
65756;BME280;52489;47.502;18.940;2023-02-20T03:39:42;98914.22;;;0.25;86.00
65756;BME280;52489;47.502;18.940;2023-02-20T03:41:06;98921.00;;;0.13;86.14
65756;BME280;52489;47.502;18.940;2023-02-20T03:42:31;98916.41;;;0.21;86.11
65756;BME280;52489;47.502;18.940;2023-02-20T03:43:55;98913.66;;;0.16;86.29
65756;BME280;52489;47.502;18.940;2023-02-20T03:45:02;98920.59;;;0.16;86.38
65756;BME280;52489;47.502;18.940;2023-02-20T03:46:12;98928.22;;;-0.09;87.82
65756;BME280;52489;47.502;18.940;2023-02-20T03:47:21;98935.13;;;-0.03;87.83
65756;BME280;52489;47.502;18.940;2023-02-20T03:49:40;98948.97;;;0.03;87.60
65756;BME280;52489;47.502;18.940;2023-02-20T03:50:45;98940.28;;;0.04;87.31
65756;BME280;52489;47.502;18.940;2023-02-20T03:51:49;98948.56;;;0.12;86.86
65756;BME280;52489;47.502;18.940;2023-02-20T03:53:01;98943.78;;;0.16;86.95
65756;BME280;52489;47.502;18.940;2023-02-20T03:54:04;98947.66;;;0.32;86.43
65756;BME280;52489;47.502;18.940;2023-02-20T03:55:08;98953.06;;;0.23;86.51
65756;BME280;52489;47.502;18.940;2023-02-20T03:56:22;98941.59;;;0.19;86.69
65756;BME280;52489;47.502;18.940;2023-02-20T03:57:33;98948.16;;;0.15;86.88
65756;BME280;52489;47.502;18.940;2023-02-20T03:58:42;98942.56;;;0.25;86.81
65756;BME280;52489;47.502;18.940;2023-02-20T03:59:53;98950.59;;;0.42;86.12
65756;BME280;52489;47.502;18.940;2023-02-20T04:00:57;98935.78;;;0.31;86.19
65756;BME280;52489;47.502;18.940;2023-02-20T04:02:16;98942.94;;;0.29;86.35
65756;BME280;52489;47.502;18.940;2023-02-20T04:03:24;98945.91;;;0.26;86.50
65756;BME280;52489;47.502;18.940;2023-02-20T04:04:44;98942.41;;;0.13;86.95
65756;BME280;52489;47.502;18.940;2023-02-20T04:05:52;98943.56;;;0.17;86.93
65756;BME280;52489;47.502;18.940;2023-02-20T04:06:57;98936.25;;;0.14;86.81
65756;BME280;52489;47.502;18.940;2023-02-20T04:08:22;98933.66;;;0.21;86.99
65756;BME280;52489;47.502;18.940;2023-02-20T04:09:29;98932.44;;;0.23;86.67
65756;BME280;52489;47.502;18.940;2023-02-20T04:10:40;98940.19;;;0.17;86.59
65756;BME280;52489;47.502;18.940;2023-02-20T04:11:49;98940.38;;;0.22;86.71
65756;BME280;52489;47.502;18.940;2023-02-20T04:12:55;98944.78;;;0.08;87.67
65756;BME280;52489;47.502;18.940;2023-02-20T04:14:00;98944.38;;;0.18;87.13
65756;BME280;52489;47.502;18.940;2023-02-20T04:15:04;98933.03;;;0.26;86.55
65756;BME280;52489;47.502;18.940;2023-02-20T04:16:09;98941.81;;;0.18;86.76
65756;BME280;52489;47.502;18.940;2023-02-20T04:17:31;98937.62;;;0.17;86.97
65756;BME280;52489;47.502;18.940;2023-02-20T04:18:34;98932.47;;;0.17;86.73
65756;BME280;52489;47.502;18.940;2023-02-20T04:19:38;98920.41;;;0.11;86.97
65756;BME280;52489;47.502;18.940;2023-02-20T04:20:40;98913.69;;;0.10;87.07
65756;BME280;52489;47.502;18.940;2023-02-20T04:21:53;98914.66;;;0.09;87.10
65756;BME280;52489;47.502;18.940;2023-02-20T04:23:02;98931.16;;;0.01;87.70
65756;BME280;52489;47.502;18.940;2023-02-20T04:24:10;98932.13;;;0.07;87.52
65756;BME280;52489;47.502;18.940;2023-02-20T04:26:25;98936.50;;;0.06;87.78
65756;BME280;52489;47.502;18.940;2023-02-20T04:27:28;98935.31;;;0.02;88.28
65756;BME280;52489;47.502;18.940;2023-02-20T04:28:32;98935.13;;;0.04;88.46
65756;BME280;52489;47.502;18.940;2023-02-20T04:29:36;98933.06;;;0.19;87.72
65756;BME280;52489;47.502;18.940;2023-02-20T04:30:39;98944.38;;;0.11;88.07
65756;BME280;52489;47.502;18.940;2023-02-20T04:31:43;98952.38;;;-0.10;89.00
65756;BME280;52489;47.502;18.940;2023-02-20T04:32:46;98946.47;;;-0.24;89.95
65756;BME280;52489;47.502;18.940;2023-02-20T04:33:49;98956.41;;;-0.28;90.27
65756;BME280;52489;47.502;18.940;2023-02-20T04:34:52;98958.13;;;-0.02;89.80
65756;BME280;52489;47.502;18.940;2023-02-20T04:35:55;98956.69;;;0.09;88.56
65756;BME280;52489;47.502;18.940;2023-02-20T04:37:08;98954.09;;;0.16;88.38
65756;BME280;52489;47.502;18.940;2023-02-20T04:38:13;98954.13;;;0.09;88.50
65756;BME280;52489;47.502;18.940;2023-02-20T04:39:16;98958.47;;;0.15;88.31
65756;BME280;52489;47.502;18.940;2023-02-20T04:40:22;98957.84;;;0.20;87.99
65756;BME280;52489;47.502;18.940;2023-02-20T04:41:26;98948.03;;;0.35;87.12
65756;BME280;52489;47.502;18.940;2023-02-20T04:42:29;98946.88;;;0.31;87.06
65756;BME280;52489;47.502;18.940;2023-02-20T04:43:32;98958.22;;;0.23;86.92
65756;BME280;52489;47.502;18.940;2023-02-20T04:44:35;98943.09;;;0.34;87.14
65756;BME280;52489;47.502;18.940;2023-02-20T04:45:38;98940.06;;;0.43;87.08
65756;BME280;52489;47.502;18.940;2023-02-20T04:46:41;98939.91;;;0.38;87.21
65756;BME280;52489;47.502;18.940;2023-02-20T04:47:45;98937.59;;;0.30;87.43
65756;BME280;52489;47.502;18.940;2023-02-20T04:48:48;98932.25;;;0.25;87.55
65756;BME280;52489;47.502;18.940;2023-02-20T04:49:51;98934.34;;;0.41;87.33
65756;BME280;52489;47.502;18.940;2023-02-20T04:50:55;98928.00;;;0.37;87.10
65756;BME280;52489;47.502;18.940;2023-02-20T04:51:58;98923.88;;;0.36;87.30
65756;BME280;52489;47.502;18.940;2023-02-20T04:53:01;98921.72;;;0.33;87.27
65756;BME280;52489;47.502;18.940;2023-02-20T04:54:04;98923.28;;;0.34;87.20
65756;BME280;52489;47.502;18.940;2023-02-20T04:55:07;98918.47;;;0.44;87.08
65756;BME280;52489;47.502;18.940;2023-02-20T04:56:10;98922.88;;;0.37;87.00
65756;BME280;52489;47.502;18.940;2023-02-20T04:57:17;98915.25;;;0.49;87.06
65756;BME280;52489;47.502;18.940;2023-02-20T04:58:20;98913.19;;;0.26;87.70
65756;BME280;52489;47.502;18.940;2023-02-20T04:59:24;98920.09;;;0.32;87.74
65756;BME280;52489;47.502;18.940;2023-02-20T05:00:28;98908.97;;;0.38;87.59
65756;BME280;52489;47.502;18.940;2023-02-20T05:01:31;98901.41;;;0.43;87.44
65756;BME280;52489;47.502;18.940;2023-02-20T05:02:34;98902.50;;;0.61;86.55
65756;BME280;52489;47.502;18.940;2023-02-20T05:03:38;98898.53;;;0.58;86.37
65756;BME280;52489;47.502;18.940;2023-02-20T05:04:41;98905.31;;;0.53;86.58
65756;BME280;52489;47.502;18.940;2023-02-20T05:05:44;98910.66;;;0.58;86.45
65756;BME280;52489;47.502;18.940;2023-02-20T05:06:51;98907.69;;;0.54;86.32
65756;BME280;52489;47.502;18.940;2023-02-20T05:07:56;98912.16;;;0.72;85.77
65756;BME280;52489;47.502;18.940;2023-02-20T05:08:59;98906.09;;;0.53;86.10
65756;BME280;52489;47.502;18.940;2023-02-20T05:10:02;98902.00;;;0.45;86.95
65756;BME280;52489;47.502;18.940;2023-02-20T05:11:05;98915.62;;;0.53;86.84
65756;BME280;52489;47.502;18.940;2023-02-20T05:12:08;98914.66;;;0.54;86.75
65756;BME280;52489;47.502;18.940;2023-02-20T05:13:12;98919.41;;;0.50;87.07
65756;BME280;52489;47.502;18.940;2023-02-20T05:14:15;98917.34;;;0.65;86.88
65756;BME280;52489;47.502;18.940;2023-02-20T05:15:18;98910.53;;;0.78;86.09
65756;BME280;52489;47.502;18.940;2023-02-20T05:16:22;98909.34;;;0.74;86.09
65756;BME280;52489;47.502;18.940;2023-02-20T05:17:25;98912.16;;;0.72;86.48
65756;BME280;52489;47.502;18.940;2023-02-20T05:18:30;98916.59;;;0.58;86.55
65756;BME280;52489;47.502;18.940;2023-02-20T05:19:33;98921.13;;;0.63;86.97
65756;BME280;52489;47.502;18.940;2023-02-20T05:20:36;98922.38;;;0.54;87.62
65756;BME280;52489;47.502;18.940;2023-02-20T05:21:57;98924.56;;;0.57;87.27
65756;BME280;52489;47.502;18.940;2023-02-20T05:23:19;98922.09;;;0.68;86.83
65756;BME280;52489;47.502;18.940;2023-02-20T05:24:22;98920.78;;;0.84;86.15
65756;BME280;52489;47.502;18.940;2023-02-20T05:25:26;98926.41;;;0.75;85.98
65756;BME280;52489;47.502;18.940;2023-02-20T05:26:29;98923.47;;;0.71;86.25
65756;BME280;52489;47.502;18.940;2023-02-20T05:27:32;98918.13;;;0.66;86.28
65756;BME280;52489;47.502;18.940;2023-02-20T05:28:37;98926.59;;;0.73;86.43
65756;BME280;52489;47.502;18.940;2023-02-20T05:29:46;98933.16;;;0.76;86.03
65756;BME280;52489;47.502;18.940;2023-02-20T05:30:49;98931.22;;;0.71;86.80
65756;BME280;52489;47.502;18.940;2023-02-20T05:31:53;98939.56;;;0.66;86.88
65756;BME280;52489;47.502;18.940;2023-02-20T05:32:56;98939.25;;;0.50;88.53
65756;BME280;52489;47.502;18.940;2023-02-20T05:33:59;98932.84;;;0.59;87.96
65756;BME280;52489;47.502;18.940;2023-02-20T05:35:02;98932.84;;;0.59;87.48
65756;BME280;52489;47.502;18.940;2023-02-20T05:36:05;98943.19;;;0.52;87.20
65756;BME280;52489;47.502;18.940;2023-02-20T05:37:10;98939.97;;;0.63;87.16
65756;BME280;52489;47.502;18.940;2023-02-20T05:38:17;98931.09;;;0.59;87.64
65756;BME280;52489;47.502;18.940;2023-02-20T05:39:21;98935.00;;;0.62;87.98
65756;BME280;52489;47.502;18.940;2023-02-20T05:40:23;98941.84;;;0.81;87.19
65756;BME280;52489;47.502;18.940;2023-02-20T05:41:26;98942.72;;;0.68;87.17
65756;BME280;52489;47.502;18.940;2023-02-20T05:42:29;98934.47;;;0.53;88.66
65756;BME280;52489;47.502;18.940;2023-02-20T05:43:32;98944.75;;;0.60;88.68
65756;BME280;52489;47.502;18.940;2023-02-20T05:44:35;98937.75;;;0.67;88.51
65756;BME280;52489;47.502;18.940;2023-02-20T05:45:38;98938.53;;;0.74;88.21
65756;BME280;52489;47.502;18.940;2023-02-20T05:46:41;98942.69;;;0.75;87.80
65756;BME280;52489;47.502;18.940;2023-02-20T05:47:45;98942.72;;;0.68;88.02
65756;BME280;52489;47.502;18.940;2023-02-20T05:48:48;98938.97;;;0.64;88.48
65756;BME280;52489;47.502;18.940;2023-02-20T05:49:52;98939.50;;;0.73;88.29
65756;BME280;52489;47.502;18.940;2023-02-20T05:50:55;98948.84;;;0.67;88.37
65756;BME280;52489;47.502;18.940;2023-02-20T05:51:58;98947.88;;;0.68;88.75
65756;BME280;52489;47.502;18.940;2023-02-20T05:53:01;98940.56;;;0.65;89.51
65756;BME280;52489;47.502;18.940;2023-02-20T05:54:05;98937.81;;;0.60;89.36
65756;BME280;52489;47.502;18.940;2023-02-20T05:55:08;98939.38;;;0.61;89.38
65756;BME280;52489;47.502;18.940;2023-02-20T05:56:11;98938.53;;;0.74;88.23
65756;BME280;52489;47.502;18.940;2023-02-20T05:57:15;98940.28;;;0.74;88.06
65756;BME280;52489;47.502;18.940;2023-02-20T05:58:18;98936.72;;;0.75;87.99
65756;BME280;52489;47.502;18.940;2023-02-20T05:59:22;98948.84;;;0.74;88.15
65756;BME280;52489;47.502;18.940;2023-02-20T06:00:25;98941.34;;;0.66;88.83
65756;BME280;52489;47.502;18.940;2023-02-20T06:01:30;98946.56;;;0.84;88.37
65756;BME280;52489;47.502;18.940;2023-02-20T06:02:33;98949.53;;;0.88;88.22
65756;BME280;52489;47.502;18.940;2023-02-20T06:03:36;98947.16;;;0.86;87.49
65756;BME280;52489;47.502;18.940;2023-02-20T06:04:39;98944.38;;;0.88;87.29
65756;BME280;52489;47.502;18.940;2023-02-20T06:05:43;98953.69;;;0.89;87.44
65756;BME280;52489;47.502;18.940;2023-02-20T06:06:46;98952.03;;;1.01;87.11
65756;BME280;52489;47.502;18.940;2023-02-20T06:07:49;98946.88;;;1.01;87.03
65756;BME280;52489;47.502;18.940;2023-02-20T06:08:53;98953.22;;;0.99;86.87
65756;BME280;52489;47.502;18.940;2023-02-20T06:09:56;98950.44;;;1.00;86.79
65756;BME280;52489;47.502;18.940;2023-02-20T06:10:59;98956.41;;;1.01;86.89
65756;BME280;52489;47.502;18.940;2023-02-20T06:12:06;98964.13;;;1.01;86.78
65756;BME280;52489;47.502;18.940;2023-02-20T06:13:09;98960.91;;;1.05;86.65
65756;BME280;52489;47.502;18.940;2023-02-20T06:14:12;98968.03;;;1.10;86.76
65756;BME280;52489;47.502;18.940;2023-02-20T06:15:14;98979.19;;;1.29;86.32
65756;BME280;52489;47.502;18.940;2023-02-20T06:16:23;98976.03;;;1.27;85.93
65756;BME280;52489;47.502;18.940;2023-02-20T06:17:26;98974.19;;;1.34;85.74
65756;BME280;52489;47.502;18.940;2023-02-20T06:18:31;98976.56;;;1.35;85.44
65756;BME280;52489;47.502;18.940;2023-02-20T06:19:34;98982.03;;;1.46;85.37
65756;BME280;52489;47.502;18.940;2023-02-20T06:20:37;98974.13;;;1.41;85.17
65756;BME280;52489;47.502;18.940;2023-02-20T06:21:44;98986.25;;;1.40;85.69
65756;BME280;52489;47.502;18.940;2023-02-20T06:22:47;98981.38;;;1.50;84.95
65756;BME280;52489;47.502;18.940;2023-02-20T06:23:51;98979.22;;;1.47;84.18
65756;BME280;52489;47.502;18.940;2023-02-20T06:24:55;98981.72;;;1.35;84.03